createdAt,value
2019-05-29T00:00:16.363Z,8.10
2019-05-29T00:02:45.653Z,8.10
2019-05-29T00:05:15.192Z,8.00
2019-05-29T00:07:44.523Z,8.00
2019-05-29T00:10:14.419Z,8.00
2019-05-29T00:12:43.742Z,7.90
2019-05-29T00:15:14.984Z,7.90
2019-05-29T00:17:44.291Z,7.90
2019-05-29T00:20:14.640Z,7.80
2019-05-29T00:22:43.992Z,7.80
2019-05-29T00:25:14.739Z,7.80
2019-05-29T00:27:45.383Z,7.80
2019-05-29T00:30:15.069Z,7.70
2019-05-29T00:32:44.384Z,7.70
2019-05-29T00:35:14.343Z,7.60
2019-05-29T00:37:43.755Z,7.70
2019-05-29T00:40:14.985Z,7.60
2019-05-29T00:42:44.368Z,7.60
2019-05-29T00:45:15.521Z,7.60
2019-05-29T00:47:45.096Z,7.50
2019-05-29T00:50:14.738Z,7.50
2019-05-29T00:52:44.023Z,7.50
2019-05-29T00:55:14.581Z,7.40
2019-05-29T00:57:44.171Z,7.40
2019-05-29T01:00:15.283Z,7.40
2019-05-29T01:02:45.509Z,7.40
2019-05-29T01:05:16.182Z,7.30
2019-05-29T01:07:45.663Z,7.30
2019-05-29T01:10:18.812Z,7.30
2019-05-29T01:12:47.599Z,7.20
2019-05-29T01:15:17.453Z,7.20
2019-05-29T01:17:46.812Z,7.10
2019-05-29T01:20:18.065Z,7.10
2019-05-29T01:22:47.420Z,7.00
2019-05-29T01:25:18.672Z,7.00
2019-05-29T01:27:48.133Z,7.00
2019-05-29T01:30:17.701Z,6.90
2019-05-29T01:32:46.994Z,6.90
2019-05-29T01:35:16.367Z,6.80
2019-05-29T01:37:45.672Z,6.80
2019-05-29T01:40:21.143Z,6.80
2019-05-29T01:42:49.793Z,6.70
2019-05-29T01:45:17.514Z,6.70
2019-05-29T01:47:46.838Z,6.70
2019-05-29T01:50:17.682Z,6.70
2019-05-29T01:52:47.089Z,6.60
2019-05-29T01:55:17.586Z,6.60
2019-05-29T01:57:47.149Z,6.60
2019-05-29T02:00:17.796Z,6.60
2019-05-29T02:02:47.300Z,6.50
2019-05-29T02:05:17.866Z,6.50
2019-05-29T02:07:47.249Z,6.50
2019-05-29T02:10:16.677Z,6.40
2019-05-29T02:12:45.955Z,6.40
2019-05-29T02:15:29.166Z,6.40
2019-05-29T02:17:46.575Z,6.40
2019-05-29T02:20:17.504Z,6.30
2019-05-29T02:22:46.789Z,6.30
2019-05-29T02:25:17.642Z,6.30
2019-05-29T02:27:48.305Z,6.30
2019-05-29T02:30:20.385Z,6.20
2019-05-29T02:32:49.033Z,6.20
2019-05-29T02:35:20.106Z,6.20
2019-05-29T02:37:49.576Z,6.10
2019-05-29T02:40:20.944Z,6.10
2019-05-29T02:42:49.881Z,6.10
2019-05-29T02:45:19.583Z,6.10
2019-05-29T02:47:49.663Z,6.00
2019-05-29T02:50:19.849Z,6.00
2019-05-29T02:52:49.324Z,6.00
2019-05-29T02:55:20.500Z,6.00
2019-05-29T02:57:49.599Z,6.00
2019-05-29T03:00:19.129Z,5.90
2019-05-29T03:02:48.415Z,5.90
2019-05-29T03:05:17.716Z,5.90
2019-05-29T03:07:47.073Z,5.80
2019-05-29T03:10:16.709Z,5.80
2019-05-29T03:12:45.996Z,5.80
2019-05-29T03:15:15.825Z,5.80
2019-05-29T03:17:45.143Z,5.80
2019-05-29T03:20:14.614Z,5.80
2019-05-29T03:22:43.901Z,5.80
2019-05-29T03:25:13.267Z,5.70
2019-05-29T03:27:42.582Z,5.70
2019-05-29T03:30:12.427Z,5.70
2019-05-29T03:32:47.676Z,5.70
2019-05-29T03:35:12.840Z,5.70
2019-05-29T03:37:42.142Z,5.70
2019-05-29T03:40:11.437Z,5.70
2019-05-29T03:42:40.731Z,5.60
2019-05-29T03:45:10.196Z,5.60
2019-05-29T03:47:39.485Z,5.60
2019-05-29T03:50:09.124Z,5.60
2019-05-29T03:52:39.091Z,5.60
2019-05-29T03:55:08.955Z,5.60
2019-05-29T03:57:38.459Z,5.60
2019-05-29T04:00:10.233Z,5.60
2019-05-29T04:02:39.524Z,5.60
2019-05-29T04:05:09.324Z,5.50
2019-05-29T04:07:38.660Z,5.50
2019-05-29T04:10:08.694Z,5.40
2019-05-29T04:12:38.366Z,5.40
2019-05-29T04:15:08.368Z,5.50
2019-05-29T04:17:39.776Z,5.50
2019-05-29T04:20:09.420Z,5.50
2019-05-29T04:22:50.516Z,5.60
2019-05-29T04:25:19.795Z,5.50
2019-05-29T04:27:55.352Z,5.60
2019-05-29T04:30:25.626Z,5.60
2019-05-29T04:32:54.908Z,5.70
2019-05-29T04:35:24.207Z,5.70
2019-05-29T04:37:53.506Z,5.70
2019-05-29T04:40:22.804Z,5.80
2019-05-29T04:42:52.091Z,5.80
2019-05-29T04:45:21.381Z,5.80
2019-05-29T04:47:50.677Z,5.80
2019-05-29T04:50:20.036Z,5.90
2019-05-29T04:52:49.452Z,5.90
2019-05-29T04:55:18.811Z,6.00
2019-05-29T04:57:50.803Z,6.10
2019-05-29T05:00:19.092Z,6.10
2019-05-29T05:02:48.395Z,6.20
2019-05-29T05:05:19.604Z,6.30
2019-05-29T05:07:48.755Z,6.30
2019-05-29T05:10:26.699Z,6.30
2019-05-29T05:12:56.012Z,6.40
2019-05-29T05:15:25.307Z,6.40
2019-05-29T05:17:54.599Z,6.50
2019-05-29T05:20:23.895Z,6.60
2019-05-29T05:22:53.187Z,6.60
2019-05-29T05:25:22.487Z,6.70
2019-05-29T05:27:51.795Z,6.80
2019-05-29T05:30:21.515Z,7.00
2019-05-29T05:32:50.803Z,7.10
2019-05-29T05:35:20.108Z,7.20
2019-05-29T05:37:49.395Z,7.40
2019-05-29T05:40:18.708Z,7.60
2019-05-29T05:42:48.006Z,7.80
2019-05-29T05:45:17.931Z,7.90
2019-05-29T05:47:57.074Z,8.00
2019-05-29T05:50:20.119Z,8.40
2019-05-29T05:52:50.389Z,8.60
2019-05-29T05:55:19.674Z,8.80
2019-05-29T05:57:48.975Z,8.90
2019-05-29T06:00:27.226Z,9.10
2019-05-29T06:02:56.536Z,9.20
2019-05-29T06:05:25.820Z,9.50
2019-05-29T06:07:55.307Z,9.70
2019-05-29T06:10:24.600Z,9.90
2019-05-29T06:12:53.891Z,10.30
2019-05-29T06:15:23.214Z,10.50
2019-05-29T06:18:16.948Z,10.70
2019-05-29T06:20:23.512Z,11.00
2019-05-29T06:22:52.824Z,11.50
2019-05-29T06:25:22.396Z,11.40
2019-05-29T06:27:51.728Z,11.70
2019-05-29T06:30:21.550Z,12.00
2019-05-29T06:32:50.918Z,12.10
2019-05-29T06:35:20.241Z,12.20
2019-05-29T06:37:49.539Z,12.20
2019-05-29T06:40:30.987Z,12.50
2019-05-29T06:43:00.283Z,12.70
2019-05-29T06:45:32.219Z,12.90
2019-05-29T06:48:03.265Z,13.10
2019-05-29T06:50:32.581Z,13.20
2019-05-29T06:53:01.871Z,13.30
2019-05-29T06:55:31.245Z,13.30
2019-05-29T06:58:00.553Z,13.50
2019-05-29T07:00:35.427Z,13.80
2019-05-29T07:03:00.898Z,14.00
2019-05-29T07:05:30.244Z,14.10
2019-05-29T07:08:13.345Z,14.20
2019-05-29T07:10:31.628Z,14.00
2019-05-29T07:13:00.920Z,14.20
2019-05-29T07:15:30.232Z,14.30
2019-05-29T07:17:59.529Z,14.60
2019-05-29T07:20:28.967Z,14.80
2019-05-29T07:22:58.266Z,14.90
2019-05-29T07:25:27.571Z,14.90
2019-05-29T07:27:56.866Z,15.20
2019-05-29T07:30:26.194Z,15.20
2019-05-29T07:32:58.631Z,15.40
2019-05-29T07:35:26.537Z,15.40
2019-05-29T07:37:55.834Z,15.50
2019-05-29T07:40:25.123Z,15.50
2019-05-29T07:42:56.573Z,15.50
2019-05-29T07:45:25.455Z,15.70
2019-05-29T07:47:54.757Z,16.00
2019-05-29T07:50:24.037Z,16.40
2019-05-29T07:52:53.383Z,16.30
2019-05-29T07:55:23.725Z,16.20
2019-05-29T07:57:53.264Z,16.40
2019-05-29T08:00:22.738Z,16.50
2019-05-29T08:02:52.032Z,16.60
2019-05-29T08:05:21.329Z,16.70
2019-05-29T08:07:50.616Z,16.70
2019-05-29T08:10:21.523Z,16.70
2019-05-29T08:12:55.234Z,16.40
2019-05-29T08:15:21.840Z,16.30
2019-05-29T08:17:51.129Z,16.60
2019-05-29T08:20:20.420Z,16.70
2019-05-29T08:22:50.543Z,16.80
2019-05-29T08:25:20.208Z,16.90
2019-05-29T08:27:50.719Z,17.00
2019-05-29T08:30:20.352Z,17.20
2019-05-29T08:32:51.300Z,17.50
2019-05-29T08:35:20.699Z,17.60
2019-05-29T08:37:51.092Z,17.60
2019-05-29T08:40:20.933Z,17.70
2019-05-29T08:42:51.386Z,17.60
2019-05-29T08:45:20.978Z,17.30
2019-05-29T08:47:50.285Z,17.40
2019-05-29T08:50:19.713Z,17.50
2019-05-29T08:52:50.111Z,17.60
2019-05-29T08:55:19.630Z,17.80
2019-05-29T08:57:48.951Z,18.10
2019-05-29T09:00:19.067Z,18.00
2019-05-29T09:02:49.155Z,18.10
2019-05-29T09:05:18.780Z,18.30
2019-05-29T09:07:49.843Z,18.30
2019-05-29T09:10:21.444Z,18.50
2019-05-29T09:13:01.880Z,18.30
2019-05-29T09:15:22.048Z,18.40
2019-05-29T09:17:51.446Z,18.40
2019-05-29T09:20:37.063Z,18.50
2019-05-29T09:22:52.049Z,18.60
2019-05-29T09:25:21.347Z,18.70
2019-05-29T09:27:50.803Z,18.70
2019-05-29T09:30:20.342Z,19.00
2019-05-29T09:32:52.964Z,19.10
2019-05-29T09:35:23.285Z,19.30
2019-05-29T09:37:52.867Z,19.20
2019-05-29T09:40:23.082Z,19.20
2019-05-29T09:42:52.563Z,18.90
2019-05-29T09:45:21.871Z,19.10
2019-05-29T09:47:51.220Z,19.40
2019-05-29T09:50:25.031Z,19.40
2019-05-29T09:52:54.777Z,19.20
2019-05-29T09:55:24.134Z,19.30
2019-05-29T09:57:54.163Z,19.40
2019-05-29T10:00:24.888Z,19.60
2019-05-29T10:02:55.461Z,19.70
2019-05-29T10:05:25.000Z,19.70
2019-05-29T10:07:55.171Z,19.60
2019-05-29T10:10:26.879Z,19.70
2019-05-29T10:12:56.479Z,19.90
2019-05-29T10:15:26.444Z,19.90
2019-05-29T10:17:56.896Z,19.80
2019-05-29T10:20:26.768Z,19.90
2019-05-29T10:22:57.111Z,19.70
2019-05-29T10:25:26.556Z,19.20
2019-05-29T10:27:55.848Z,19.40
2019-05-29T10:30:25.597Z,19.50
2019-05-29T10:32:54.927Z,19.60
2019-05-29T10:35:24.271Z,19.90
2019-05-29T10:37:53.568Z,19.90
2019-05-29T10:40:22.936Z,20.00
2019-05-29T10:42:53.577Z,20.10
2019-05-29T10:45:23.831Z,19.90
2019-05-29T10:47:54.113Z,19.90
2019-05-29T10:50:24.686Z,20.00
2019-05-29T10:52:54.288Z,19.80
2019-05-29T10:55:24.724Z,19.90
2019-05-29T10:57:55.195Z,20.10
2019-05-29T11:00:24.844Z,20.30
2019-05-29T11:02:55.840Z,20.30
2019-05-29T11:05:25.400Z,20.20
2019-05-29T11:08:00.948Z,19.80
2019-05-29T11:10:30.250Z,20.10
2019-05-29T11:12:59.544Z,20.30
2019-05-29T11:15:28.837Z,20.10
2019-05-29T11:17:58.135Z,20.40
2019-05-29T11:20:27.880Z,20.50
2019-05-29T11:22:57.833Z,20.30
2019-05-29T11:25:27.927Z,20.20
2019-05-29T11:27:58.556Z,20.40
2019-05-29T11:30:28.021Z,20.20
2019-05-29T11:33:00.480Z,20.20
2019-05-29T11:35:28.303Z,20.20
2019-05-29T11:37:58.848Z,20.00
2019-05-29T11:40:28.474Z,20.20
2019-05-29T11:42:59.149Z,20.30
2019-05-29T11:45:29.769Z,20.20
2019-05-29T11:48:01.482Z,20.30
2019-05-29T11:50:30.179Z,20.50
2019-05-29T11:52:59.491Z,20.60
2019-05-29T11:55:28.792Z,20.50
2019-05-29T11:57:58.088Z,20.30
2019-05-29T12:00:28.154Z,20.60
2019-05-29T12:02:57.803Z,20.70
2019-05-29T12:05:27.195Z,20.80
2019-05-29T12:07:57.541Z,20.60
2019-05-29T12:10:27.019Z,20.10
2019-05-29T12:12:57.451Z,20.30
2019-05-29T12:15:27.005Z,20.00
2019-05-29T12:18:18.486Z,19.90
2019-05-29T12:20:28.825Z,20.00
2019-05-29T12:23:18.921Z,20.10
2019-05-29T12:25:29.552Z,20.30
2019-05-29T12:27:59.278Z,20.30
2019-05-29T12:30:29.176Z,20.30
2019-05-29T12:32:59.161Z,20.00
2019-05-29T12:35:28.726Z,20.30
2019-05-29T12:37:59.325Z,20.20
2019-05-29T12:40:28.916Z,20.40
2019-05-29T12:43:00.088Z,20.30
2019-05-29T12:45:29.659Z,20.60
2019-05-29T12:47:59.787Z,20.40
2019-05-29T12:50:33.511Z,20.10
2019-05-29T12:53:01.633Z,20.30
2019-05-29T12:55:31.205Z,20.10
2019-05-29T12:58:00.507Z,20.30
2019-05-29T13:00:29.868Z,20.40
2019-05-29T13:03:00.622Z,20.50
2019-05-29T13:05:30.153Z,20.60
2019-05-29T13:08:00.818Z,20.60
2019-05-29T13:10:31.376Z,20.60
2019-05-29T13:13:07.947Z,20.50
2019-05-29T13:15:32.760Z,20.40
2019-05-29T13:18:06.244Z,20.30
2019-05-29T13:20:34.615Z,20.30
2019-05-29T13:23:05.408Z,20.50
2019-05-29T13:25:35.281Z,20.30
2019-05-29T13:28:06.001Z,20.10
2019-05-29T13:30:35.562Z,20.30
2019-05-29T13:33:07.415Z,19.90
2019-05-29T13:35:35.875Z,19.90
2019-05-29T13:38:05.353Z,20.00
2019-05-29T13:40:34.642Z,20.10
2019-05-29T13:43:11.399Z,20.10
2019-05-29T13:45:34.979Z,20.30
2019-05-29T13:48:05.412Z,20.40
2019-05-29T13:50:35.095Z,20.50
2019-05-29T13:53:05.483Z,20.30
2019-05-29T13:55:35.081Z,20.40
2019-05-29T13:58:05.710Z,20.40
2019-05-29T14:00:35.353Z,20.70
2019-05-29T14:03:06.942Z,20.80
2019-05-29T14:05:36.373Z,20.40
2019-05-29T14:08:07.111Z,20.40
2019-05-29T14:10:36.630Z,20.20
2019-05-29T14:13:07.375Z,20.20
2019-05-29T14:15:36.865Z,20.30
2019-05-29T14:18:07.089Z,20.40
2019-05-29T14:20:36.556Z,20.60
2019-05-29T14:23:07.306Z,20.70
2019-05-29T14:25:36.804Z,20.80
2019-05-29T14:28:06.802Z,20.60
2019-05-29T14:30:36.707Z,20.40
2019-05-29T14:33:06.729Z,20.70
2019-05-29T14:35:36.678Z,20.40
2019-05-29T14:38:09.881Z,20.30
2019-05-29T14:40:36.987Z,20.50
2019-05-29T14:43:11.357Z,20.60
2019-05-29T14:45:38.590Z,20.50
2019-05-29T14:48:08.207Z,20.60
2019-05-29T14:50:37.647Z,20.60
2019-05-29T14:53:07.374Z,20.70
2019-05-29T14:55:37.119Z,20.70
2019-05-29T14:58:07.685Z,20.70
2019-05-29T15:00:37.195Z,20.70
2019-05-29T15:03:07.385Z,20.50
2019-05-29T15:05:36.873Z,20.50
2019-05-29T15:08:06.179Z,20.20
2019-05-29T15:10:35.471Z,20.20
2019-05-29T15:13:06.573Z,20.50
2019-05-29T15:15:36.068Z,20.30
2019-05-29T15:18:06.870Z,20.40
2019-05-29T15:20:36.443Z,20.40
2019-05-29T15:23:07.403Z,20.40
2019-05-29T15:25:36.959Z,20.10
2019-05-29T15:28:06.260Z,20.20
2019-05-29T15:30:35.557Z,20.30
2019-05-29T15:33:06.204Z,20.30
2019-05-29T15:35:35.771Z,20.10
2019-05-29T15:38:06.539Z,20.20
2019-05-29T15:40:36.040Z,20.40
2019-05-29T15:43:06.524Z,20.20
2019-05-29T15:45:36.019Z,20.10
2019-05-29T15:48:07.019Z,20.00
2019-05-29T15:50:37.559Z,20.10
2019-05-29T15:53:07.138Z,20.10
2019-05-29T15:55:36.531Z,20.20
2019-05-29T15:58:07.225Z,20.10
2019-05-29T16:00:36.895Z,20.10
2019-05-29T16:03:07.577Z,20.20
2019-05-29T16:05:37.074Z,20.10
2019-05-29T16:08:07.986Z,20.20
2019-05-29T16:10:37.425Z,20.10
2019-05-29T16:13:06.736Z,20.10
2019-05-29T16:15:36.036Z,19.80
2019-05-29T16:18:19.013Z,19.80
2019-05-29T16:20:36.463Z,19.90
2019-05-29T16:23:05.799Z,19.80
2019-05-29T16:25:39.986Z,19.90
2019-05-29T16:28:06.100Z,19.80
2019-05-29T16:30:35.379Z,19.80
2019-05-29T16:33:04.754Z,19.80
2019-05-29T16:35:37.563Z,19.80
2019-05-29T16:38:06.697Z,19.60
2019-05-29T16:40:35.981Z,19.50
2019-05-29T16:43:05.411Z,19.60
2019-05-29T16:45:34.708Z,19.50
2019-05-29T16:48:04.013Z,19.50
2019-05-29T16:50:33.315Z,19.50
2019-05-29T16:53:02.615Z,19.50
2019-05-29T16:55:31.927Z,19.40
2019-05-29T16:58:01.250Z,19.40
2019-05-29T17:00:31.212Z,19.40
2019-05-29T17:03:00.530Z,19.30
2019-05-29T17:05:29.830Z,19.40
2019-05-29T17:07:59.119Z,19.20
2019-05-29T17:10:36.770Z,19.20
2019-05-29T17:13:07.326Z,19.20
2019-05-29T17:15:36.731Z,19.10
2019-05-29T17:18:06.502Z,19.00
2019-05-29T17:20:41.075Z,18.90
2019-05-29T17:23:10.827Z,18.90
2019-05-29T17:25:40.782Z,18.80
2019-05-29T17:28:10.079Z,18.80
2019-05-29T17:30:40.357Z,18.80
2019-05-29T17:33:09.743Z,18.80
2019-05-29T17:35:39.059Z,18.80
2019-05-29T17:38:08.550Z,18.70
2019-05-29T17:40:37.856Z,18.60
2019-05-29T17:43:07.875Z,18.50
2019-05-29T17:45:37.162Z,18.50
2019-05-29T17:48:06.457Z,18.40
2019-05-29T17:50:35.827Z,18.40
2019-05-29T17:53:05.126Z,18.40
2019-05-29T17:55:34.562Z,18.30
2019-05-29T17:58:03.923Z,18.30
2019-05-29T18:00:33.578Z,18.20
2019-05-29T18:03:02.981Z,18.20
2019-05-29T18:05:32.280Z,18.10
2019-05-29T18:08:02.035Z,18.10
2019-05-29T18:10:31.625Z,18.00
2019-05-29T18:13:01.018Z,18.00
2019-05-29T18:15:30.404Z,18.00
2019-05-29T18:17:59.704Z,17.90
2019-05-29T18:20:29.187Z,17.90
2019-05-29T18:22:58.474Z,17.80
2019-05-29T18:25:28.169Z,17.80
2019-05-29T18:27:57.671Z,17.80
2019-05-29T18:30:28.679Z,17.70
2019-05-29T18:32:58.349Z,17.60
2019-05-29T18:35:27.681Z,17.60
2019-05-29T18:37:56.982Z,17.50
2019-05-29T18:40:26.427Z,17.50
2019-05-29T18:42:55.903Z,17.40
2019-05-29T18:45:26.635Z,17.30
2019-05-29T18:47:56.199Z,17.20
2019-05-29T18:50:25.700Z,17.20
2019-05-29T18:52:55.079Z,17.10
2019-05-29T18:55:24.901Z,17.10
2019-05-29T18:57:54.356Z,17.00
2019-05-29T19:00:25.256Z,17.00
2019-05-29T19:02:54.930Z,16.90
2019-05-29T19:05:25.481Z,16.90
2019-05-29T19:07:55.043Z,16.80
2019-05-29T19:10:25.535Z,16.80
2019-05-29T19:12:54.928Z,16.70
2019-05-29T19:15:24.218Z,16.70
2019-05-29T19:17:53.533Z,16.60
2019-05-29T19:20:24.252Z,16.60
2019-05-29T19:22:54.082Z,16.60
2019-05-29T19:25:24.494Z,16.60
2019-05-29T19:27:54.076Z,16.50
2019-05-29T19:30:24.879Z,16.50
2019-05-29T19:32:54.183Z,16.50
2019-05-29T19:35:23.581Z,16.40
2019-05-29T19:37:52.910Z,16.40
2019-05-29T19:40:22.351Z,16.30
2019-05-29T19:42:54.585Z,16.30
2019-05-29T19:45:22.668Z,16.20
2019-05-29T19:47:52.028Z,16.10
2019-05-29T19:50:21.757Z,16.10
2019-05-29T19:52:51.067Z,16.00
2019-05-29T19:55:20.435Z,15.90
2019-05-29T19:57:55.746Z,15.90
2019-05-29T20:00:21.097Z,15.80
2019-05-29T20:02:50.399Z,15.80
2019-05-29T20:05:19.695Z,15.70
2019-05-29T20:07:49.011Z,15.60
2019-05-29T20:10:18.547Z,15.60
2019-05-29T20:12:47.858Z,15.50
2019-05-29T20:15:17.347Z,15.50
2019-05-29T20:17:46.643Z,15.40
2019-05-29T20:20:16.012Z,15.40
2019-05-29T20:22:45.348Z,15.40
2019-05-29T20:25:14.972Z,15.30
2019-05-29T20:27:44.281Z,15.20
2019-05-29T20:30:18.516Z,15.20
2019-05-29T20:32:48.770Z,15.20
2019-05-29T20:35:18.152Z,15.10
2019-05-29T20:37:47.559Z,15.10
2019-05-29T20:40:17.220Z,15.00
2019-05-29T20:42:47.563Z,14.90
2019-05-29T20:45:16.942Z,14.90
2019-05-29T20:47:46.319Z,14.80
2019-05-29T20:50:15.955Z,14.80
2019-05-29T20:52:46.340Z,14.80
2019-05-29T20:55:16.709Z,14.70
2019-05-29T20:57:46.018Z,14.60
2019-05-29T21:00:17.131Z,14.60
2019-05-29T21:02:46.507Z,14.50
2019-05-29T21:05:17.347Z,14.50
2019-05-29T21:07:46.716Z,14.50
2019-05-29T21:10:17.956Z,14.40
2019-05-29T21:12:47.708Z,14.30
2019-05-29T21:15:18.011Z,14.30
2019-05-29T21:17:47.314Z,14.20
2019-05-29T21:20:17.381Z,14.20
2019-05-29T21:22:46.879Z,14.10
2019-05-29T21:25:19.125Z,14.10
2019-05-29T21:27:49.417Z,14.00
2019-05-29T21:30:23.317Z,14.00
2019-05-29T21:32:53.160Z,14.00
2019-05-29T21:35:22.463Z,14.00
2019-05-29T21:37:51.776Z,14.00
2019-05-29T21:40:21.086Z,13.90
2019-05-29T21:42:50.380Z,13.90
2019-05-29T21:45:19.856Z,13.80
2019-05-29T21:47:49.253Z,13.80
2019-05-29T21:50:18.663Z,13.80
2019-05-29T21:52:47.955Z,13.80
2019-05-29T21:55:17.486Z,13.90
2019-05-29T21:57:49.842Z,13.90
2019-05-29T22:00:20.387Z,13.90
2019-05-29T22:02:50.523Z,13.90
2019-05-29T22:05:19.807Z,13.90
2019-05-29T22:07:49.099Z,13.90
2019-05-29T22:10:18.653Z,13.90
2019-05-29T22:12:48.190Z,14.00
2019-05-29T22:15:17.787Z,14.00
2019-05-29T22:17:47.294Z,13.90
2019-05-29T22:20:17.672Z,14.00
2019-05-29T22:22:47.042Z,14.00
2019-05-29T22:25:16.570Z,14.00
2019-05-29T22:27:45.871Z,14.00
2019-05-29T22:30:16.603Z,14.10
2019-05-29T22:32:45.908Z,14.00
2019-05-29T22:35:15.534Z,14.10
2019-05-29T22:37:44.845Z,14.10
2019-05-29T22:40:14.810Z,14.10
2019-05-29T22:42:44.114Z,14.10
2019-05-29T22:45:13.563Z,14.20
2019-05-29T22:47:42.866Z,14.20
2019-05-29T22:50:12.542Z,14.30
2019-05-29T22:52:41.842Z,14.20
2019-05-29T22:55:11.201Z,14.30
2019-05-29T22:57:40.523Z,14.30
2019-05-29T23:00:10.162Z,14.30
2019-05-29T23:02:39.540Z,14.30
2019-05-29T23:05:09.275Z,14.40
2019-05-29T23:07:38.633Z,14.40
2019-05-29T23:10:09.084Z,14.40
2019-05-29T23:12:38.380Z,14.40
2019-05-29T23:15:08.316Z,14.40
2019-05-29T23:17:37.615Z,14.40
2019-05-29T23:20:10.778Z,14.40
2019-05-29T23:22:40.081Z,14.40
2019-05-29T23:25:10.416Z,14.40
2019-05-29T23:27:39.717Z,14.40
2019-05-29T23:30:09.360Z,14.40
2019-05-29T23:32:38.733Z,14.50
2019-05-29T23:35:08.703Z,14.50
2019-05-29T23:37:38.115Z,14.50
2019-05-29T23:40:08.047Z,14.50
2019-05-29T23:42:37.344Z,14.50
2019-05-29T23:45:08.221Z,14.50
2019-05-29T23:47:37.519Z,14.50
2019-05-29T23:50:07.266Z,14.50
2019-05-29T23:52:36.635Z,14.50
2019-05-29T23:55:07.923Z,14.50
2019-05-29T23:57:38.791Z,14.50
